Time;durP1;ratioP1;P1;durP2;ratioP2;P2;SDS_P1;SDS_P2;PMS_P1;PMS_P2;Temp;Humidity;BMP_temperature;BMP_pressure;BME280_temperature;BME280_humidity;BME280_pressure;Samples;Min_cycle;Max_cycle;Signal;HPM_P1;HPM_P2
2022/01/17 00:00:21;;;;;;;47.40;30.00;;;2.20;99.90;;;;;;5081376;28;20214;-90
2022/01/17 00:02:49;;;;;;;41.47;28.77;;;2.10;99.90;;;;;;5101187;28;20446;-89
2022/01/17 00:05:16;;;;;;;47.63;30.30;;;2.10;99.90;;;;;;5064610;28;20192;-89
2022/01/17 00:07:42;;;;;;;46.47;29.40;;;2.20;99.90;;;;;;5099250;28;20219;-89
2022/01/17 00:10:08;;;;;;;40.97;25.83;;;2.10;99.90;;;;;;5080053;28;20752;-89
2022/01/17 00:12:38;;;;;;;39.30;26.63;;;2.10;99.90;;;;;;5101628;28;20801;-90
2022/01/17 00:15:13;;;;;;;38.93;27.60;;;2.10;99.90;;;;;;5088908;28;20180;-91
2022/01/17 00:17:41;;;;;;;39.57;25.40;;;2.00;99.90;;;;;;5094381;28;20175;-90
2022/01/17 00:20:14;;;;;;;36.93;23.40;;;2.00;99.90;;;;;;5084525;28;20259;-89
2022/01/17 00:22:40;;;;;;;33.23;21.23;;;2.10;99.90;;;;;;5093155;28;20199;-89
2022/01/17 00:25:07;;;;;;;36.63;21.77;;;2.10;99.90;;;;;;5082961;28;20252;-88
2022/01/17 00:27:33;;;;;;;37.40;24.50;;;2.10;99.90;;;;;;5100251;28;20264;-90
2022/01/17 00:30:02;;;;;;;37.10;23.00;;;1.90;99.90;;;;;;5099145;28;20202;-90
2022/01/17 00:32:29;;;;;;;40.77;23.50;;;1.80;99.90;;;;;;5092962;28;20724;-90
2022/01/17 00:34:55;;;;;;;36.17;22.20;;;2.00;99.90;;;;;;5099006;28;20189;-90
2022/01/17 00:37:21;;;;;;;36.87;22.37;;;1.90;99.90;;;;;;5080959;28;20645;-90
2022/01/17 00:39:47;;;;;;;35.43;21.20;;;1.90;99.90;;;;;;5080263;28;20252;-90
2022/01/17 00:42:12;;;;;;;42.53;23.37;;;1.80;99.90;;;;;;5076961;28;20694;-90
2022/01/17 00:44:38;;;;;;;40.07;22.67;;;1.80;99.90;;;;;;5074062;28;20261;-90
2022/01/17 00:47:04;;;;;;;32.63;21.13;;;1.90;99.90;;;;;;5101289;28;20191;-89
2022/01/17 00:49:29;;;;;;;35.93;22.90;;;1.90;99.90;;;;;;5093497;28;20755;-91
2022/01/17 00:51:55;;;;;;;36.10;22.63;;;1.80;99.90;;;;;;5091315;28;20194;-91
2022/01/17 00:54:21;;;;;;;34.17;20.17;;;1.90;99.90;;;;;;5072672;28;20214;-90
2022/01/17 00:56:46;;;;;;;31.57;20.27;;;1.90;99.90;;;;;;5095549;28;20230;-89
2022/01/17 00:59:12;;;;;;;32.77;19.93;;;1.90;99.90;;;;;;5097333;28;20202;-89
2022/01/17 01:01:38;;;;;;;34.53;21.37;;;1.80;99.90;;;;;;5096051;28;20566;-90
2022/01/17 01:04:04;;;;;;;34.80;22.37;;;1.90;99.90;;;;;;5076567;28;20246;-89
2022/01/17 01:06:30;;;;;;;36.67;21.33;;;1.80;99.90;;;;;;5082280;28;20199;-90
2022/01/17 01:08:57;;;;;;;31.43;20.47;;;1.80;99.90;;;;;;5096698;28;20211;-90
2022/01/17 01:11:23;;;;;;;33.73;22.67;;;1.90;99.90;;;;;;5087628;28;20185;-90
2022/01/17 01:13:48;;;;;;;30.50;21.03;;;1.90;99.90;;;;;;5090717;28;20199;-90
2022/01/17 01:19:07;;;;;;;42.53;26.70;;;1.80;99.90;;;;;;5099862;28;20186;-90
2022/01/17 01:29:30;;;;;;;38.97;25.60;;;1.80;99.90;;;;;;5100946;28;20276;-91
2022/01/17 01:32:02;;;;;;;42.93;27.73;;;1.80;99.90;;;;;;5084619;28;20179;-90
2022/01/17 01:34:34;;;;;;;42.33;29.37;;;1.80;99.90;;;;;;5085546;28;20203;-90
2022/01/17 01:37:02;;;;;;;43.23;28.80;;;1.70;99.90;;;;;;5100273;28;20182;-90
2022/01/17 01:39:28;;;;;;;43.33;28.93;;;1.70;99.90;;;;;;5102095;28;20182;-90
2022/01/17 01:41:54;;;;;;;42.27;28.90;;;1.70;99.90;;;;;;5099116;28;20202;-90
2022/01/17 01:44:22;;;;;;;41.07;28.23;;;1.70;99.90;;;;;;5099613;28;20208;-89
2022/01/17 01:46:51;;;;;;;39.37;25.67;;;1.80;99.90;;;;;;5099499;28;20262;-89
2022/01/17 01:49:18;;;;;;;40.63;26.77;;;1.80;99.90;;;;;;5090343;28;20220;-90
2022/01/17 01:51:46;;;;;;;38.23;27.40;;;1.70;99.90;;;;;;5097010;28;20203;-89
2022/01/17 01:54:13;;;;;;;39.33;27.20;;;1.70;99.90;;;;;;5100970;28;20225;-89
2022/01/17 01:56:44;;;;;;;38.47;26.27;;;1.70;99.90;;;;;;5101236;28;20191;-90
2022/01/17 01:59:10;;;;;;;38.10;25.40;;;1.70;99.90;;;;;;5091937;28;20206;-89
2022/01/17 02:01:36;;;;;;;35.57;24.43;;;1.70;99.90;;;;;;5083679;28;20259;-90
2022/01/17 02:04:03;;;;;;;35.40;24.50;;;1.70;99.90;;;;;;5111310;28;20219;-89
2022/01/17 02:06:29;;;;;;;35.73;23.87;;;1.80;99.90;;;;;;5117492;27;20188;-90
2022/01/17 02:08:55;;;;;;;36.40;23.47;;;1.80;99.90;;;;;;5104942;28;20186;-90
2022/01/17 02:11:21;;;;;;;36.43;25.03;;;1.70;99.90;;;;;;5086127;28;20229;-89
2022/01/17 02:13:47;;;;;;;36.97;24.40;;;1.80;99.90;;;;;;5113116;28;20273;-89
2022/01/17 02:16:15;;;;;;;33.03;22.53;;;1.80;99.90;;;;;;5099757;28;20285;-89
2022/01/17 02:18:43;;;;;;;32.43;23.13;;;1.90;99.90;;;;;;5099895;28;20186;-90
2022/01/17 02:21:13;;;;;;;29.63;21.37;;;1.80;99.90;;;;;;5100154;28;20209;-89
2022/01/17 02:23:40;;;;;;;35.27;23.73;;;1.90;99.90;;;;;;5090857;28;20256;-90
2022/01/17 02:26:05;;;;;;;32.70;22.50;;;1.80;99.90;;;;;;5102446;28;20178;-90
2022/01/17 02:28:36;;;;;;;32.20;22.33;;;1.90;99.90;;;;;;5081447;28;20187;-89
2022/01/17 02:31:04;;;;;;;32.50;20.97;;;2.00;99.90;;;;;;5085897;28;20219;-90
2022/01/17 02:33:30;;;;;;;33.47;20.87;;;2.00;99.90;;;;;;5081629;28;20208;-90
2022/01/17 02:35:56;;;;;;;34.50;22.03;;;2.00;99.90;;;;;;5096034;28;20191;-90
2022/01/17 02:38:22;;;;;;;31.57;21.23;;;2.00;99.90;;;;;;5077284;28;20206;-89
2022/01/17 02:40:50;;;;;;;29.57;22.13;;;2.00;99.90;;;;;;5091936;28;20336;-90
2022/01/17 02:43:18;;;;;;;30.23;21.03;;;1.90;99.90;;;;;;5100180;28;20211;-91
2022/01/17 02:48:22;;;;;;;32.40;21.20;;;2.00;99.90;;;;;;5100028;28;20175;-90
2022/01/17 02:50:48;;;;;;;31.23;21.33;;;1.90;99.90;;;;;;5098078;28;20470;-90
2022/01/17 02:53:15;;;;;;;31.90;22.07;;;2.00;99.90;;;;;;5101674;28;20279;-89
2022/01/17 02:55:50;;;;;;;30.10;20.87;;;1.90;99.90;;;;;;5113585;28;20235;-88
2022/01/17 02:58:19;;;;;;;27.57;20.50;;;1.90;99.90;;;;;;5095256;28;20198;-90
2022/01/17 03:00:45;;;;;;;31.67;21.27;;;1.90;99.90;;;;;;5101157;28;20184;-90
2022/01/17 03:03:15;;;;;;;30.70;21.23;;;1.90;99.90;;;;;;5100892;28;20215;-89
2022/01/17 03:05:42;;;;;;;28.57;20.73;;;1.90;99.90;;;;;;5102377;28;20183;-90
2022/01/17 03:08:08;;;;;;;30.47;21.30;;;1.80;99.90;;;;;;5085269;28;20187;-89
2022/01/17 03:10:39;;;;;;;27.53;19.03;;;1.90;99.90;;;;;;5065367;28;20240;-90
2022/01/17 03:13:34;;;;;;;25.47;18.13;;;2.00;99.90;;;;;;5074398;28;20237;-90
2022/01/17 03:16:14;;;;;;;25.57;17.90;;;2.00;99.90;;;;;;5087553;28;20206;-90
2022/01/17 03:18:42;;;;;;;26.00;18.43;;;2.00;99.90;;;;;;5101538;28;20216;-88
2022/01/17 03:21:09;;;;;;;26.90;17.93;;;1.90;99.90;;;;;;5100104;28;20281;-89
2022/01/17 03:23:37;;;;;;;27.50;18.63;;;1.90;99.90;;;;;;5095989;28;20784;-89
2022/01/17 03:26:04;;;;;;;24.93;18.10;;;2.00;99.90;;;;;;5098899;28;20191;-89
2022/01/17 03:28:30;;;;;;;27.83;19.03;;;1.90;99.90;;;;;;5096514;28;20218;-91
2022/01/17 03:30:57;;;;;;;26.77;19.17;;;1.90;99.90;;;;;;5094820;28;20276;-90
2022/01/17 03:33:23;;;;;;;23.17;15.87;;;2.00;99.90;;;;;;5071874;28;20211;-88
2022/01/17 03:35:49;;;;;;;23.00;16.83;;;2.00;99.90;;;;;;5102235;28;20224;-90
2022/01/17 03:38:17;;;;;;;24.87;17.73;;;2.10;99.90;;;;;;5094823;28;20190;-89
2022/01/17 03:40:46;;;;;;;23.60;16.70;;;2.00;99.90;;;;;;5076964;28;20187;-89
2022/01/17 03:43:12;;;;;;;23.33;16.60;;;2.00;99.90;;;;;;5083760;28;20284;-90
2022/01/17 03:45:38;;;;;;;23.40;16.23;;;2.00;99.90;;;;;;5094590;28;20635;-89
2022/01/17 03:48:04;;;;;;;26.77;18.23;;;2.10;99.90;;;;;;5062612;28;20215;-88
2022/01/17 03:50:30;;;;;;;26.13;17.27;;;2.10;99.90;;;;;;5084726;28;20331;-90
2022/01/17 03:52:56;;;;;;;23.10;17.73;;;2.10;99.90;;;;;;5095500;28;20202;-90
2022/01/17 03:55:23;;;;;;;23.67;17.23;;;1.90;99.90;;;;;;5099344;28;20222;-89
2022/01/17 03:57:50;;;;;;;22.53;17.20;;;2.00;99.90;;;;;;5081291;28;20245;-89
2022/01/17 04:00:20;;;;;;;22.83;17.10;;;2.10;99.90;;;;;;5099977;28;20657;-90
2022/01/17 04:02:46;;;;;;;22.50;16.27;;;2.10;99.90;;;;;;5077897;28;20225;-90
2022/01/17 04:05:12;;;;;;;21.53;16.37;;;2.20;99.90;;;;;;5086934;28;20218;-90
2022/01/17 04:07:38;;;;;;;23.47;15.37;;;2.20;99.90;;;;;;5077987;28;20195;-90
2022/01/17 04:10:04;;;;;;;23.43;16.47;;;2.10;99.90;;;;;;5098256;28;20260;-90
2022/01/17 04:12:30;;;;;;;24.03;16.83;;;2.20;99.90;;;;;;5102634;28;20219;-91
2022/01/17 04:14:56;;;;;;;21.43;15.87;;;2.20;99.90;;;;;;5102365;28;20739;-90
2022/01/17 04:17:27;;;;;;;23.77;16.43;;;2.20;99.90;;;;;;5078201;28;20199;-90
2022/01/17 04:19:59;;;;;;;21.07;15.93;;;2.10;99.90;;;;;;5073946;28;20549;-90
2022/01/17 04:22:26;;;;;;;24.13;16.77;;;2.10;99.90;;;;;;5075691;28;20191;-90
2022/01/17 04:24:52;;;;;;;22.60;16.70;;;2.00;99.90;;;;;;5077376;28;20252;-90
2022/01/17 04:27:17;;;;;;;26.20;17.77;;;2.00;99.90;;;;;;5096708;28;20274;-90
2022/01/17 04:29:43;;;;;;;23.47;16.83;;;2.00;99.90;;;;;;5095645;28;20203;-88
2022/01/17 04:32:09;;;;;;;23.33;17.63;;;2.00;99.90;;;;;;5071417;28;20192;-90
2022/01/17 04:34:34;;;;;;;26.77;17.93;;;2.00;99.90;;;;;;5095369;28;20241;-89
2022/01/17 04:37:02;;;;;;;24.57;17.53;;;2.10;99.90;;;;;;5086984;28;20232;-90
2022/01/17 04:39:28;;;;;;;24.53;18.13;;;2.20;99.90;;;;;;5092222;28;20188;-90
2022/01/17 04:41:56;;;;;;;24.03;16.47;;;2.30;99.90;;;;;;5081009;28;20389;-88
2022/01/17 04:47:06;;;;;;;24.13;17.87;;;2.20;99.90;;;;;;5094169;28;20198;-91
2022/01/17 04:49:31;;;;;;;24.00;17.30;;;2.20;99.90;;;;;;5117849;27;20221;-89
2022/01/17 04:51:57;;;;;;;22.40;17.47;;;2.20;99.90;;;;;;5103436;28;20264;-89
2022/01/17 04:54:40;;;;;;;25.83;19.27;;;2.10;99.90;;;;;;5094889;28;20747;-89
2022/01/17 04:57:10;;;;;;;24.23;17.93;;;2.10;99.90;;;;;;5103576;28;20183;-88
2022/01/17 04:59:37;;;;;;;25.30;18.13;;;2.10;99.90;;;;;;5094067;28;20176;-88
2022/01/17 05:02:03;;;;;;;24.23;17.67;;;2.10;99.90;;;;;;5108787;28;20206;-90
2022/01/17 05:04:29;;;;;;;23.97;17.17;;;2.30;99.90;;;;;;5096821;28;20217;-90
2022/01/17 05:06:55;;;;;;;25.47;16.67;;;2.20;99.90;;;;;;5094675;28;20673;-89
2022/01/17 05:09:20;;;;;;;22.73;17.17;;;2.20;99.90;;;;;;5091884;28;20233;-89
2022/01/17 05:11:46;;;;;;;22.40;16.73;;;2.20;99.90;;;;;;5075372;28;20187;-90
2022/01/17 05:14:13;;;;;;;23.27;17.20;;;2.20;99.90;;;;;;5070033;28;20249;-89
2022/01/17 05:16:46;;;;;;;25.47;18.20;;;2.20;99.90;;;;;;5095148;28;20194;-90
2022/01/17 05:21:55;;;;;;;25.83;18.37;;;2.10;99.90;;;;;;5090259;28;20205;-89
2022/01/17 05:24:21;;;;;;;24.63;17.50;;;2.20;99.90;;;;;;5098955;28;20211;-89
2022/01/17 05:26:47;;;;;;;24.43;18.17;;;2.10;99.90;;;;;;5094311;28;20223;-89
2022/01/17 05:29:13;;;;;;;23.83;17.47;;;2.20;99.90;;;;;;5102373;28;20211;-90
2022/01/17 05:31:38;;;;;;;24.60;17.83;;;2.30;99.90;;;;;;5076003;28;20201;-90
2022/01/17 05:34:04;;;;;;;26.03;18.10;;;2.20;99.90;;;;;;5097751;28;20267;-90
2022/01/17 05:36:30;;;;;;;25.03;17.53;;;2.20;99.90;;;;;;5094485;28;21220;-90
2022/01/17 05:38:56;;;;;;;28.10;18.73;;;2.20;99.90;;;;;;5078404;28;20256;-91
2022/01/17 05:41:22;;;;;;;22.30;16.60;;;2.10;99.90;;;;;;5097217;28;20187;-89
2022/01/17 05:43:48;;;;;;;24.97;16.97;;;2.20;99.90;;;;;;5089820;28;20218;-89
2022/01/17 05:46:13;;;;;;;23.97;18.53;;;2.10;99.90;;;;;;5091417;28;20204;-89
2022/01/17 05:48:40;;;;;;;22.23;16.03;;;2.10;99.90;;;;;;5080275;28;20199;-89
2022/01/17 05:51:06;;;;;;;23.27;16.30;;;2.20;99.90;;;;;;5094886;28;20648;-89
2022/01/17 05:53:32;;;;;;;22.63;16.73;;;2.10;99.90;;;;;;5064129;28;20215;-89
2022/01/17 05:55:58;;;;;;;23.90;16.53;;;2.20;99.90;;;;;;5092215;28;20290;-88
2022/01/17 05:58:24;;;;;;;26.00;17.00;;;2.20;99.90;;;;;;5091586;28;20198;-90
2022/01/17 06:00:51;;;;;;;22.97;17.47;;;2.20;99.90;;;;;;5093371;28;20187;-89
2022/01/17 06:03:17;;;;;;;24.97;17.97;;;2.30;99.90;;;;;;5098771;28;20206;-88
2022/01/17 06:05:44;;;;;;;25.93;19.43;;;2.20;99.90;;;;;;5102144;28;20254;-89
2022/01/17 06:08:10;;;;;;;27.03;19.57;;;2.10;99.90;;;;;;5079937;28;20193;-88
2022/01/17 06:10:35;;;;;;;30.57;18.93;;;2.20;99.90;;;;;;5075704;28;20690;-89
2022/01/17 06:13:01;;;;;;;27.17;19.60;;;2.20;99.90;;;;;;5078503;28;20682;-89
2022/01/17 06:15:27;;;;;;;25.27;19.47;;;2.20;99.90;;;;;;5102068;28;20182;-88
2022/01/17 06:17:53;;;;;;;23.93;17.83;;;2.10;99.90;;;;;;5112852;28;20188;-89
2022/01/17 06:20:19;;;;;;;29.03;19.53;;;2.20;99.90;;;;;;5094716;28;20198;-89
2022/01/17 06:22:45;;;;;;;24.77;19.40;;;2.10;99.90;;;;;;5079689;28;20218;-90
2022/01/17 06:25:11;;;;;;;27.73;19.90;;;2.10;99.90;;;;;;5106550;28;20867;-90
2022/01/17 06:27:37;;;;;;;27.20;19.77;;;2.00;99.90;;;;;;5081955;28;20725;-90
2022/01/17 06:30:04;;;;;;;28.43;19.90;;;2.10;99.90;;;;;;5098168;28;20223;-89
2022/01/17 06:32:30;;;;;;;22.53;18.30;;;2.10;99.90;;;;;;5102171;28;20299;-89
2022/01/17 06:34:57;;;;;;;28.13;19.73;;;2.10;99.90;;;;;;5102871;28;20205;-92
2022/01/17 06:37:22;;;;;;;23.67;17.93;;;2.20;99.90;;;;;;5081050;28;20191;-89
2022/01/17 06:39:49;;;;;;;25.10;18.77;;;2.10;99.90;;;;;;5083836;28;20491;-89
2022/01/17 06:42:14;;;;;;;24.80;18.50;;;2.10;99.90;;;;;;5083934;28;20191;-90
2022/01/17 06:44:40;;;;;;;25.33;18.97;;;2.00;99.90;;;;;;5101313;28;20233;-89
2022/01/17 06:47:07;;;;;;;28.07;20.33;;;2.10;99.90;;;;;;5098871;28;20530;-88
2022/01/17 06:49:33;;;;;;;27.97;20.27;;;2.10;99.90;;;;;;5103237;28;20234;-90
2022/01/17 06:51:59;;;;;;;26.47;19.73;;;2.10;99.90;;;;;;5107449;28;20186;-90
2022/01/17 06:54:24;;;;;;;25.20;18.80;;;2.10;99.90;;;;;;5083668;28;20206;-89
2022/01/17 06:56:50;;;;;;;26.73;19.83;;;2.20;99.90;;;;;;5101608;28;20277;-90
2022/01/17 06:59:16;;;;;;;26.17;19.43;;;2.20;99.90;;;;;;5094361;28;20199;-90
2022/01/17 07:01:42;;;;;;;32.60;21.93;;;2.20;99.90;;;;;;5086498;28;20190;-90
2022/01/17 07:04:09;;;;;;;29.30;20.37;;;2.10;99.90;;;;;;5102586;28;20210;-90
2022/01/17 07:06:37;;;;;;;32.40;22.13;;;2.00;99.90;;;;;;5098759;28;20210;-90
2022/01/17 07:09:05;;;;;;;28.00;21.63;;;1.90;99.90;;;;;;5079304;28;20195;-90
2022/01/17 07:11:37;;;;;;;35.37;23.00;;;1.90;99.90;;;;;;5066106;28;20677;-90
2022/01/17 07:14:11;;;;;;;34.10;22.70;;;1.90;99.90;;;;;;5098698;28;20270;-90
2022/01/17 07:16:39;;;;;;;32.80;24.13;;;1.90;99.90;;;;;;5084123;28;20242;-89
2022/01/17 07:19:05;;;;;;;31.97;21.27;;;1.80;99.90;;;;;;5082801;28;20213;-90
2022/01/17 07:21:31;;;;;;;33.93;21.93;;;1.90;99.90;;;;;;5095861;28;20185;-89
2022/01/17 07:23:57;;;;;;;31.83;22.10;;;1.80;99.90;;;;;;5097717;28;20203;-91
2022/01/17 07:26:23;;;;;;;31.77;21.87;;;1.90;99.90;;;;;;5092641;28;20622;-90
2022/01/17 07:28:49;;;;;;;31.83;22.57;;;1.90;99.90;;;;;;5091759;28;20211;-90
2022/01/17 07:31:18;;;;;;;31.23;23.00;;;1.80;99.90;;;;;;5058437;28;20202;-90
2022/01/17 07:33:44;;;;;;;33.13;22.97;;;1.80;99.90;;;;;;5099201;28;20211;-91
2022/01/17 07:36:15;;;;;;;31.73;22.13;;;1.80;99.90;;;;;;5097727;27;20171;-90
2022/01/17 07:38:41;;;;;;;31.07;23.47;;;1.80;99.90;;;;;;5114396;27;20187;-90
2022/01/17 07:41:08;;;;;;;33.27;24.20;;;1.80;99.90;;;;;;5065674;28;20655;-89
2022/01/17 07:43:35;;;;;;;32.37;23.27;;;1.80;99.90;;;;;;5084484;28;20191;-89
2022/01/17 07:46:06;;;;;;;33.50;22.33;;;1.90;99.90;;;;;;5127799;27;20225;-88
2022/01/17 07:51:20;;;;;;;29.90;21.97;;;1.90;99.90;;;;;;5106586;28;20278;-89
2022/01/17 07:53:46;;;;;;;31.83;23.20;;;1.80;99.90;;;;;;5093867;28;20605;-89
2022/01/17 07:56:12;;;;;;;31.03;22.40;;;1.90;99.90;;;;;;5095179;28;20199;-89
2022/01/17 07:58:38;;;;;;;28.80;22.67;;;2.00;99.90;;;;;;5099630;28;20221;-89
2022/01/17 08:01:04;;;;;;;31.83;22.93;;;2.00;99.90;;;;;;5056376;28;20198;-90
2022/01/17 08:03:30;;;;;;;33.43;22.80;;;2.00;99.90;;;;;;5069198;28;20218;-89
2022/01/17 08:05:56;;;;;;;29.87;23.60;;;2.00;99.90;;;;;;5091806;28;20196;-89
2022/01/17 08:08:22;;;;;;;32.27;21.57;;;2.10;99.90;;;;;;5097729;28;20201;-89
2022/01/17 08:10:48;;;;;;;35.73;23.67;;;2.10;99.90;;;;;;5094300;28;20214;-89
2022/01/17 08:13:14;;;;;;;35.13;24.23;;;2.00;99.90;;;;;;5097842;28;20198;-88
2022/01/17 08:15:40;;;;;;;33.40;23.07;;;1.90;99.90;;;;;;5098033;28;20222;-89
2022/01/17 08:18:05;;;;;;;32.50;24.10;;;1.90;99.90;;;;;;5093686;28;20220;-89
2022/01/17 08:20:31;;;;;;;33.57;23.40;;;1.90;99.90;;;;;;5099225;28;20251;-89
2022/01/17 08:22:57;;;;;;;33.87;24.47;;;1.90;99.90;;;;;;5075061;28;20381;-89
2022/01/17 08:25:24;;;;;;;35.53;24.70;;;2.00;99.90;;;;;;5078680;28;20670;-89
2022/01/17 08:27:50;;;;;;;35.27;24.43;;;1.90;99.90;;;;;;5079678;28;20277;-90
2022/01/17 08:30:15;;;;;;;32.97;23.97;;;2.00;99.90;;;;;;5094535;28;20347;-89
2022/01/17 08:32:41;;;;;;;36.70;25.87;;;2.00;99.90;;;;;;5098436;28;20297;-89
2022/01/17 08:35:08;;;;;;;31.73;23.03;;;1.90;99.90;;;;;;5098711;28;20179;-89
2022/01/17 08:37:34;;;;;;;32.50;23.90;;;1.90;99.90;;;;;;5082301;28;20626;-88
2022/01/17 08:40:01;;;;;;;33.17;24.73;;;1.90;99.90;;;;;;5095866;28;20187;-89
2022/01/17 08:42:27;;;;;;;38.57;25.73;;;2.00;99.90;;;;;;5095554;28;20195;-89
2022/01/17 08:44:57;;;;;;;37.53;26.03;;;1.90;99.90;;;;;;5063378;28;20240;-89
2022/01/17 08:47:23;;;;;;;34.83;24.70;;;1.80;99.90;;;;;;5070339;28;20487;-89
2022/01/17 08:49:50;;;;;;;35.27;24.77;;;1.80;99.90;;;;;;5092050;28;21060;-88
2022/01/17 08:52:17;;;;;;;37.93;25.83;;;1.80;99.90;;;;;;5092060;28;20239;-89
2022/01/17 08:54:43;;;;;;;38.67;25.70;;;1.80;99.90;;;;;;5091194;28;20555;-89
2022/01/17 08:57:10;;;;;;;34.83;26.40;;;1.80;99.90;;;;;;5092401;28;20194;-88
2022/01/17 08:59:36;;;;;;;37.23;26.30;;;1.90;99.90;;;;;;5092860;28;20180;-89
2022/01/17 09:02:01;;;;;;;36.07;26.73;;;1.80;99.90;;;;;;5071097;28;20217;-90
2022/01/17 09:04:28;;;;;;;36.03;25.93;;;1.90;99.90;;;;;;5101830;28;20210;-89
2022/01/17 09:06:54;;;;;;;33.13;25.17;;;1.90;99.90;;;;;;5078416;28;20191;-89
2022/01/17 09:09:19;;;;;;;37.20;27.27;;;1.90;99.90;;;;;;5079526;28;20205;-89
2022/01/17 09:11:45;;;;;;;40.43;25.50;;;1.90;99.90;;;;;;5096772;28;20197;-89
2022/01/17 09:14:11;;;;;;;36.37;25.03;;;2.00;99.90;;;;;;5094059;28;20206;-89
2022/01/17 09:16:37;;;;;;;33.37;23.77;;;1.90;99.90;;;;;;5078040;28;20187;-89
2022/01/17 09:19:04;;;;;;;33.33;23.40;;;2.00;99.90;;;;;;5092412;28;20183;-89
2022/01/17 09:21:31;;;;;;;35.53;24.10;;;2.10;99.90;;;;;;5093045;28;20641;-89
2022/01/17 09:23:58;;;;;;;30.27;22.43;;;2.10;99.90;;;;;;5076636;28;20275;-89
2022/01/17 09:26:27;;;;;;;29.67;23.30;;;2.10;99.90;;;;;;5093037;28;20300;-90
2022/01/17 09:28:55;;;;;;;34.63;23.90;;;2.00;99.90;;;;;;5089022;28;20183;-90
2022/01/17 09:31:22;;;;;;;34.90;24.23;;;2.10;99.90;;;;;;5074997;28;20182;-89
2022/01/17 09:33:48;;;;;;;31.07;24.17;;;2.10;99.90;;;;;;5101093;28;20207;-90
2022/01/17 09:36:15;;;;;;;30.40;23.03;;;2.10;99.90;;;;;;5093878;28;20800;-89
2022/01/17 09:38:41;;;;;;;35.40;24.67;;;2.20;99.90;;;;;;5106760;28;20203;-88
2022/01/17 09:41:06;;;;;;;29.67;22.83;;;2.20;99.90;;;;;;5094692;28;20277;-89
2022/01/17 09:43:34;;;;;;;31.30;23.30;;;2.10;99.90;;;;;;5080555;28;20656;-89
2022/01/17 09:46:00;;;;;;;32.67;24.20;;;2.20;99.90;;;;;;5087568;28;20662;-90
2022/01/17 09:48:35;;;;;;;32.37;24.50;;;2.20;99.90;;;;;;5077272;28;20189;-90
2022/01/17 09:51:30;;;;;;;29.90;22.53;;;2.30;99.90;;;;;;5103424;28;20812;-90
2022/01/17 09:53:57;;;;;;;29.77;21.50;;;2.30;99.90;;;;;;5100200;28;20223;-90
2022/01/17 09:56:25;;;;;;;27.17;20.20;;;2.50;99.90;;;;;;5098943;28;20198;-90
2022/01/17 09:58:51;;;;;;;33.10;23.17;;;2.60;99.90;;;;;;5099624;28;20257;-90
2022/01/17 10:01:17;;;;;;;28.47;20.57;;;2.50;99.90;;;;;;5097128;28;20220;-90
2022/01/17 10:03:45;;;;;;;31.57;22.30;;;2.50;99.90;;;;;;5099987;28;21337;-90
2022/01/17 10:06:11;;;;;;;33.70;23.23;;;2.30;99.90;;;;;;5065943;28;20660;-90
2022/01/17 10:08:36;;;;;;;31.73;23.07;;;2.30;99.90;;;;;;5075749;28;20187;-91
2022/01/17 10:11:04;;;;;;;31.30;23.10;;;2.30;99.90;;;;;;5095005;28;20270;-91
2022/01/17 10:13:32;;;;;;;34.10;23.43;;;2.40;99.90;;;;;;5092982;28;20307;-90
2022/01/17 10:16:07;;;;;;;30.17;21.80;;;2.40;99.90;;;;;;5104442;28;20182;-91
2022/01/17 10:18:37;;;;;;;30.70;22.57;;;2.50;99.90;;;;;;5100742;28;20182;-90
2022/01/17 10:21:19;;;;;;;29.90;21.60;;;2.50;99.90;;;;;;5106949;28;20231;-91
2022/01/17 10:37:08;;;;;;;31.70;23.13;;;2.60;99.90;;;;;;5068875;28;20652;-90
2022/01/17 10:39:37;;;;;;;28.67;21.87;;;2.70;99.90;;;;;;5096183;28;20213;-90
2022/01/17 10:42:26;;;;;;;30.53;22.60;;;2.60;99.90;;;;;;5094998;28;20940;-91
2022/01/17 10:44:53;;;;;;;31.40;23.40;;;2.60;99.90;;;;;;5095226;28;20258;-90
2022/01/17 10:47:24;;;;;;;34.90;23.37;;;2.50;99.90;;;;;;5075375;28;20195;-90
2022/01/17 10:49:56;;;;;;;31.43;22.40;;;2.60;99.90;;;;;;5076807;28;20218;-90
2022/01/17 10:52:55;;;;;;;33.00;22.60;;;2.60;99.90;;;;;;5083073;28;20546;-90
2022/01/17 10:55:36;;;;;;;31.07;23.20;;;2.60;99.90;;;;;;5091625;28;20191;-90
2022/01/17 10:58:17;;;;;;;31.60;22.87;;;2.40;99.90;;;;;;5098935;28;20191;-90
2022/01/17 11:00:49;;;;;;;30.50;22.57;;;2.40;99.90;;;;;;5091864;28;20191;-90
2022/01/17 11:03:18;;;;;;;31.40;22.70;;;2.40;99.90;;;;;;5093637;28;20206;-89
2022/01/17 11:05:47;;;;;;;31.57;21.93;;;2.40;99.90;;;;;;5092564;28;20217;-90
2022/01/17 11:08:16;;;;;;;33.27;23.37;;;2.50;99.90;;;;;;5082738;28;20191;-89
2022/01/17 11:10:45;;;;;;;34.03;23.63;;;2.60;99.90;;;;;;5096473;28;20211;-89
2022/01/17 11:13:14;;;;;;;28.90;22.37;;;2.60;99.90;;;;;;5101927;28;20203;-90
2022/01/17 11:15:42;;;;;;;32.00;22.93;;;2.70;99.90;;;;;;5063057;28;20230;-91
2022/01/17 11:18:17;;;;;;;32.67;23.20;;;2.80;99.90;;;;;;5064733;28;20186;-91
2022/01/17 11:20:43;;;;;;;32.70;23.77;;;2.70;99.90;;;;;;5099029;28;20190;-90
2022/01/17 11:23:09;;;;;;;35.90;24.17;;;2.70;99.90;;;;;;5073427;28;20218;-90
2022/01/17 11:25:41;;;;;;;30.53;23.20;;;2.70;99.90;;;;;;5088961;28;20691;-91
2022/01/17 11:28:08;;;;;;;36.37;24.77;;;2.90;99.90;;;;;;5097418;28;20203;-90
2022/01/17 11:30:37;;;;;;;34.30;25.03;;;2.70;99.90;;;;;;5095369;28;20214;-90
2022/01/17 11:33:06;;;;;;;31.40;23.33;;;2.60;99.90;;;;;;5085224;28;20218;-90
2022/01/17 11:35:37;;;;;;;32.03;23.40;;;2.70;99.90;;;;;;5100054;28;20190;-90
2022/01/17 11:38:04;;;;;;;29.93;22.57;;;2.70;99.90;;;;;;5067034;28;20274;-90
2022/01/17 11:40:36;;;;;;;29.63;23.03;;;2.80;99.90;;;;;;5075888;28;20222;-90
2022/01/17 11:43:22;;;;;;;30.80;23.90;;;2.70;99.90;;;;;;5059635;28;20210;-90
2022/01/17 11:45:51;;;;;;;30.57;22.67;;;2.70;99.90;;;;;;5092738;28;20232;-88
2022/01/17 11:48:21;;;;;;;31.87;23.63;;;2.80;99.90;;;;;;5098796;28;20195;-89
2022/01/17 11:50:49;;;;;;;31.97;21.93;;;2.80;99.90;;;;;;5068769;28;20218;-89
2022/01/17 11:53:15;;;;;;;28.33;21.87;;;2.90;99.90;;;;;;5103781;28;20218;-90
2022/01/17 11:58:31;;;;;;;27.23;21.47;;;3.00;99.90;;;;;;5092229;28;20195;-89
2022/01/17 12:00:57;;;;;;;30.17;21.37;;;3.00;99.90;;;;;;5074083;28;20545;-89
2022/01/17 12:03:43;;;;;;;31.00;21.97;;;2.90;99.90;;;;;;5077961;28;20211;-89
2022/01/17 12:06:34;;;;;;;27.87;21.23;;;3.00;99.90;;;;;;5093449;28;20190;-89
2022/01/17 12:09:25;;;;;;;30.50;22.20;;;2.90;99.90;;;;;;5090807;28;20186;-90
2022/01/17 12:12:13;;;;;;;28.67;21.43;;;2.90;99.90;;;;;;5059636;28;20196;-89
2022/01/17 12:14:44;;;;;;;28.17;21.27;;;3.00;99.90;;;;;;5090542;28;20175;-88
2022/01/17 12:17:25;;;;;;;26.60;20.53;;;3.00;99.90;;;;;;5097268;28;20546;-88
2022/01/17 12:20:17;;;;;;;28.53;20.47;;;3.00;99.90;;;;;;5096977;28;20186;-89
2022/01/17 12:22:45;;;;;;;27.43;19.07;;;3.10;99.90;;;;;;5073942;28;20223;-89
2022/01/17 12:25:31;;;;;;;27.73;20.17;;;3.20;99.90;;;;;;5097980;28;20189;-89
2022/01/17 12:28:03;;;;;;;27.63;19.47;;;3.20;99.90;;;;;;5094187;28;20187;-89
2022/01/17 12:30:50;;;;;;;27.03;20.00;;;3.10;99.90;;;;;;5091546;28;20359;-88
2022/01/17 12:33:37;;;;;;;26.73;19.47;;;3.10;99.90;;;;;;5072082;28;20206;-89
2022/01/17 12:36:23;;;;;;;25.37;18.57;;;3.20;99.90;;;;;;5086867;28;20187;-89
2022/01/17 12:38:51;;;;;;;24.97;17.63;;;3.40;99.90;;;;;;5097896;28;20184;-89
2022/01/17 12:41:37;;;;;;;23.90;18.50;;;3.30;99.90;;;;;;5092007;28;20191;-88
2022/01/17 12:44:20;;;;;;;24.50;18.73;;;3.30;99.90;;;;;;5093952;28;20206;-89
2022/01/17 12:46:48;;;;;;;21.87;17.87;;;3.30;99.90;;;;;;5095129;28;20526;-89
2022/01/17 12:49:15;;;;;;;24.43;18.60;;;3.30;99.90;;;;;;5097110;28;20197;-89
2022/01/17 12:51:43;;;;;;;25.77;18.70;;;3.40;99.90;;;;;;5092956;28;20186;-90
2022/01/17 12:54:17;;;;;;;26.80;19.10;;;3.30;99.90;;;;;;5090192;28;20243;-89
2022/01/17 12:56:46;;;;;;;28.23;19.77;;;3.40;99.90;;;;;;5093715;28;20760;-89
2022/01/17 12:59:13;;;;;;;27.73;20.60;;;3.30;99.90;;;;;;5110210;28;20167;-89
2022/01/17 13:01:47;;;;;;;26.67;19.60;;;3.10;99.90;;;;;;5094359;28;20202;-88
2022/01/17 13:04:14;;;;;;;25.43;19.70;;;3.20;99.90;;;;;;5113463;28;20215;-89
2022/01/17 13:06:41;;;;;;;23.87;18.53;;;3.30;99.90;;;;;;5098109;28;20198;-89
2022/01/17 13:09:27;;;;;;;24.47;18.63;;;3.50;99.90;;;;;;5095835;28;20194;-89
2022/01/17 13:11:57;;;;;;;26.20;18.93;;;3.50;99.90;;;;;;5109232;28;20199;-88
2022/01/17 13:14:24;;;;;;;25.57;18.73;;;3.50;99.90;;;;;;5112262;28;20283;-91
2022/01/17 13:16:51;;;;;;;28.30;19.47;;;3.40;99.90;;;;;;5079619;28;21025;-90
2022/01/17 13:19:18;;;;;;;29.33;21.77;;;3.30;99.90;;;;;;5093502;28;20191;-89